sensor_id;sensor_type;location;lat;lon;timestamp;P1;durP1;ratioP1;P2;durP2;ratioP2
23868;SDS011;12115;47.128;15.422;2022-07-09T00:00:11;2.97;;;0.88;;
23868;SDS011;12115;47.128;15.422;2022-07-09T00:02:39;2.88;;;1.02;;
23868;SDS011;12115;47.128;15.422;2022-07-09T00:05:06;1.38;;;0.70;;
23868;SDS011;12115;47.128;15.422;2022-07-09T00:07:40;2.67;;;1.13;;
23868;SDS011;12115;47.128;15.422;2022-07-09T00:10:07;1.65;;;0.90;;
23868;SDS011;12115;47.128;15.422;2022-07-09T00:12:34;2.80;;;0.90;;
23868;SDS011;12115;47.128;15.422;2022-07-09T00:15:02;2.15;;;1.00;;
23868;SDS011;12115;47.128;15.422;2022-07-09T00:17:29;2.08;;;0.90;;
23868;SDS011;12115;47.128;15.422;2022-07-09T00:19:57;2.17;;;1.10;;
23868;SDS011;12115;47.128;15.422;2022-07-09T00:22:24;4.22;;;1.08;;
23868;SDS011;12115;47.128;15.422;2022-07-09T00:24:51;1.65;;;1.00;;
23868;SDS011;12115;47.128;15.422;2022-07-09T00:27:18;2.72;;;1.10;;
23868;SDS011;12115;47.128;15.422;2022-07-09T00:29:45;2.45;;;1.30;;
23868;SDS011;12115;47.128;15.422;2022-07-09T00:32:12;1.88;;;1.02;;
23868;SDS011;12115;47.128;15.422;2022-07-09T00:34:39;1.45;;;1.00;;
23868;SDS011;12115;47.128;15.422;2022-07-09T00:37:06;3.03;;;1.10;;
23868;SDS011;12115;47.128;15.422;2022-07-09T00:39:34;2.17;;;1.08;;
23868;SDS011;12115;47.128;15.422;2022-07-09T00:42:02;2.30;;;1.08;;
23868;SDS011;12115;47.128;15.422;2022-07-09T00:47:01;4.80;;;1.20;;
23868;SDS011;12115;47.128;15.422;2022-07-09T00:49:30;3.42;;;1.20;;
23868;SDS011;12115;47.128;15.422;2022-07-09T00:51:59;2.72;;;0.90;;
23868;SDS011;12115;47.128;15.422;2022-07-09T00:54:26;3.42;;;0.75;;
23868;SDS011;12115;47.128;15.422;2022-07-09T00:56:54;3.08;;;1.10;;
23868;SDS011;12115;47.128;15.422;2022-07-09T00:59:21;2.38;;;1.13;;
23868;SDS011;12115;47.128;15.422;2022-07-09T01:01:49;2.88;;;1.10;;
23868;SDS011;12115;47.128;15.422;2022-07-09T01:04:17;1.70;;;1.10;;
23868;SDS011;12115;47.128;15.422;2022-07-09T01:06:44;3.03;;;1.10;;
23868;SDS011;12115;47.128;15.422;2022-07-09T01:09:11;2.33;;;0.95;;
23868;SDS011;12115;47.128;15.422;2022-07-09T01:11:39;2.85;;;1.00;;
23868;SDS011;12115;47.128;15.422;2022-07-09T01:14:06;2.55;;;1.30;;
23868;SDS011;12115;47.128;15.422;2022-07-09T01:16:35;3.90;;;1.25;;
23868;SDS011;12115;47.128;15.422;2022-07-09T01:19:03;3.17;;;1.17;;
23868;SDS011;12115;47.128;15.422;2022-07-09T01:21:31;2.40;;;1.00;;
23868;SDS011;12115;47.128;15.422;2022-07-09T01:23:58;3.05;;;1.30;;
23868;SDS011;12115;47.128;15.422;2022-07-09T01:26:25;1.77;;;1.02;;
23868;SDS011;12115;47.128;15.422;2022-07-09T01:28:53;3.10;;;1.20;;
23868;SDS011;12115;47.128;15.422;2022-07-09T01:31:20;1.63;;;1.17;;
23868;SDS011;12115;47.128;15.422;2022-07-09T01:33:47;2.50;;;1.10;;
23868;SDS011;12115;47.128;15.422;2022-07-09T01:36:14;2.75;;;1.23;;
23868;SDS011;12115;47.128;15.422;2022-07-09T01:38:43;2.63;;;1.25;;
23868;SDS011;12115;47.128;15.422;2022-07-09T01:41:10;4.90;;;1.20;;
23868;SDS011;12115;47.128;15.422;2022-07-09T01:43:37;2.58;;;1.30;;
23868;SDS011;12115;47.128;15.422;2022-07-09T01:46:04;3.17;;;1.40;;
23868;SDS011;12115;47.128;15.422;2022-07-09T01:48:32;4.20;;;1.50;;
23868;SDS011;12115;47.128;15.422;2022-07-09T01:51:02;2.17;;;1.60;;
23868;SDS011;12115;47.128;15.422;2022-07-09T01:53:29;2.75;;;1.27;;
23868;SDS011;12115;47.128;15.422;2022-07-09T01:55:56;3.30;;;1.48;;
23868;SDS011;12115;47.128;15.422;2022-07-09T01:58:23;3.55;;;1.30;;
23868;SDS011;12115;47.128;15.422;2022-07-09T02:00:50;2.28;;;1.17;;
23868;SDS011;12115;47.128;15.422;2022-07-09T02:03:17;3.70;;;1.40;;
23868;SDS011;12115;47.128;15.422;2022-07-09T02:05:44;4.22;;;1.20;;
23868;SDS011;12115;47.128;15.422;2022-07-09T02:08:11;2.60;;;1.13;;
23868;SDS011;12115;47.128;15.422;2022-07-09T02:10:39;3.35;;;1.13;;
23868;SDS011;12115;47.128;15.422;2022-07-09T02:13:05;2.22;;;1.20;;
23868;SDS011;12115;47.128;15.422;2022-07-09T02:15:33;4.97;;;1.20;;
23868;SDS011;12115;47.128;15.422;2022-07-09T02:18:01;3.05;;;1.48;;
23868;SDS011;12115;47.128;15.422;2022-07-09T02:20:28;3.80;;;1.40;;
23868;SDS011;12115;47.128;15.422;2022-07-09T02:22:55;3.03;;;1.10;;
23868;SDS011;12115;47.128;15.422;2022-07-09T02:25:22;3.33;;;1.27;;
23868;SDS011;12115;47.128;15.422;2022-07-09T02:27:52;3.67;;;1.00;;
23868;SDS011;12115;47.128;15.422;2022-07-09T02:30:19;5.53;;;1.38;;
23868;SDS011;12115;47.128;15.422;2022-07-09T02:32:46;2.15;;;1.20;;
23868;SDS011;12115;47.128;15.422;2022-07-09T02:35:13;2.00;;;1.05;;
23868;SDS011;12115;47.128;15.422;2022-07-09T02:37:40;3.38;;;1.30;;
23868;SDS011;12115;47.128;15.422;2022-07-09T02:40:08;3.40;;;1.20;;
23868;SDS011;12115;47.128;15.422;2022-07-09T02:42:35;2.45;;;1.50;;
23868;SDS011;12115;47.128;15.422;2022-07-09T02:45:03;1.88;;;1.20;;
23868;SDS011;12115;47.128;15.422;2022-07-09T02:47:31;4.25;;;1.23;;
23868;SDS011;12115;47.128;15.422;2022-07-09T02:49:58;3.63;;;1.30;;
23868;SDS011;12115;47.128;15.422;2022-07-09T02:52:25;1.55;;;1.08;;
23868;SDS011;12115;47.128;15.422;2022-07-09T02:54:52;2.15;;;1.27;;
23868;SDS011;12115;47.128;15.422;2022-07-09T02:57:19;4.68;;;1.33;;
23868;SDS011;12115;47.128;15.422;2022-07-09T02:59:46;3.40;;;0.90;;
23868;SDS011;12115;47.128;15.422;2022-07-09T03:02:13;2.85;;;1.00;;
23868;SDS011;12115;47.128;15.422;2022-07-09T03:04:40;1.90;;;1.08;;
23868;SDS011;12115;47.128;15.422;2022-07-09T03:07:08;4.55;;;1.00;;
23868;SDS011;12115;47.128;15.422;2022-07-09T03:09:35;6.38;;;1.45;;
23868;SDS011;12115;47.128;15.422;2022-07-09T03:12:02;1.48;;;0.93;;
23868;SDS011;12115;47.128;15.422;2022-07-09T03:14:29;1.95;;;0.90;;
23868;SDS011;12115;47.128;15.422;2022-07-09T03:16:56;1.85;;;1.00;;
23868;SDS011;12115;47.128;15.422;2022-07-09T03:19:23;3.28;;;1.20;;
23868;SDS011;12115;47.128;15.422;2022-07-09T03:21:51;6.72;;;1.20;;
23868;SDS011;12115;47.128;15.422;2022-07-09T03:24:18;2.97;;;1.20;;
23868;SDS011;12115;47.128;15.422;2022-07-09T03:26:45;1.75;;;1.00;;
23868;SDS011;12115;47.128;15.422;2022-07-09T03:29:12;3.38;;;0.90;;
23868;SDS011;12115;47.128;15.422;2022-07-09T03:31:39;1.27;;;0.90;;
23868;SDS011;12115;47.128;15.422;2022-07-09T03:34:06;3.75;;;1.17;;
23868;SDS011;12115;47.128;15.422;2022-07-09T03:36:34;3.45;;;1.38;;
23868;SDS011;12115;47.128;15.422;2022-07-09T03:39:01;3.72;;;1.30;;
23868;SDS011;12115;47.128;15.422;2022-07-09T03:41:28;2.33;;;1.25;;
23868;SDS011;12115;47.128;15.422;2022-07-09T03:43:55;2.90;;;1.10;;
23868;SDS011;12115;47.128;15.422;2022-07-09T03:46:22;2.22;;;1.13;;
23868;SDS011;12115;47.128;15.422;2022-07-09T03:48:50;1.77;;;1.00;;
23868;SDS011;12115;47.128;15.422;2022-07-09T03:51:18;2.58;;;1.35;;
23868;SDS011;12115;47.128;15.422;2022-07-09T03:53:45;3.72;;;1.05;;
23868;SDS011;12115;47.128;15.422;2022-07-09T03:56:12;2.17;;;1.00;;
23868;SDS011;12115;47.128;15.422;2022-07-09T03:58:39;1.63;;;0.90;;
23868;SDS011;12115;47.128;15.422;2022-07-09T04:01:07;2.72;;;0.90;;
23868;SDS011;12115;47.128;15.422;2022-07-09T04:03:34;1.98;;;1.10;;
23868;SDS011;12115;47.128;15.422;2022-07-09T04:06:01;2.58;;;1.10;;
23868;SDS011;12115;47.128;15.422;2022-07-09T04:08:28;1.38;;;1.10;;
23868;SDS011;12115;47.128;15.422;2022-07-09T04:10:55;1.88;;;1.10;;
23868;SDS011;12115;47.128;15.422;2022-07-09T04:13:22;3.47;;;1.70;;
23868;SDS011;12115;47.128;15.422;2022-07-09T04:15:49;2.95;;;1.27;;
23868;SDS011;12115;47.128;15.422;2022-07-09T04:18:16;4.22;;;1.27;;
23868;SDS011;12115;47.128;15.422;2022-07-09T04:20:43;2.78;;;1.30;;
23868;SDS011;12115;47.128;15.422;2022-07-09T04:23:10;3.20;;;1.10;;
23868;SDS011;12115;47.128;15.422;2022-07-09T04:25:37;2.67;;;1.30;;
23868;SDS011;12115;47.128;15.422;2022-07-09T04:28:04;1.38;;;1.20;;
23868;SDS011;12115;47.128;15.422;2022-07-09T04:30:32;2.80;;;1.20;;
23868;SDS011;12115;47.128;15.422;2022-07-09T04:32:59;2.22;;;1.10;;
23868;SDS011;12115;47.128;15.422;2022-07-09T04:35:27;1.90;;;0.95;;
23868;SDS011;12115;47.128;15.422;2022-07-09T04:37:54;3.45;;;0.82;;
23868;SDS011;12115;47.128;15.422;2022-07-09T04:40:21;4.35;;;1.85;;
23868;SDS011;12115;47.128;15.422;2022-07-09T04:42:48;2.97;;;1.27;;
23868;SDS011;12115;47.128;15.422;2022-07-09T04:45:15;3.10;;;1.40;;
23868;SDS011;12115;47.128;15.422;2022-07-09T04:47:42;3.30;;;1.38;;
23868;SDS011;12115;47.128;15.422;2022-07-09T04:50:09;3.90;;;1.15;;
23868;SDS011;12115;47.128;15.422;2022-07-09T04:52:37;1.90;;;1.00;;
23868;SDS011;12115;47.128;15.422;2022-07-09T04:55:05;2.83;;;0.90;;
23868;SDS011;12115;47.128;15.422;2022-07-09T04:57:33;2.42;;;1.17;;
23868;SDS011;12115;47.128;15.422;2022-07-09T05:00:00;2.25;;;1.20;;
23868;SDS011;12115;47.128;15.422;2022-07-09T05:02:28;10.77;;;1.58;;
23868;SDS011;12115;47.128;15.422;2022-07-09T05:04:55;4.85;;;1.10;;
23868;SDS011;12115;47.128;15.422;2022-07-09T05:07:22;5.15;;;1.10;;
23868;SDS011;12115;47.128;15.422;2022-07-09T05:09:49;3.70;;;1.00;;
23868;SDS011;12115;47.128;15.422;2022-07-09T05:12:16;5.38;;;1.40;;
23868;SDS011;12115;47.128;15.422;2022-07-09T05:14:43;4.60;;;1.40;;
23868;SDS011;12115;47.128;15.422;2022-07-09T05:17:10;2.83;;;1.50;;
23868;SDS011;12115;47.128;15.422;2022-07-09T05:19:37;5.35;;;1.33;;
23868;SDS011;12115;47.128;15.422;2022-07-09T05:22:04;2.72;;;1.30;;
23868;SDS011;12115;47.128;15.422;2022-07-09T05:24:31;5.35;;;1.40;;
23868;SDS011;12115;47.128;15.422;2022-07-09T05:26:58;2.38;;;1.23;;
23868;SDS011;12115;47.128;15.422;2022-07-09T05:29:25;1.73;;;1.00;;
23868;SDS011;12115;47.128;15.422;2022-07-09T05:31:53;1.58;;;1.00;;
23868;SDS011;12115;47.128;15.422;2022-07-09T05:34:20;2.05;;;1.17;;
23868;SDS011;12115;47.128;15.422;2022-07-09T05:36:47;2.55;;;1.40;;
23868;SDS011;12115;47.128;15.422;2022-07-09T05:39:14;3.72;;;0.98;;
23868;SDS011;12115;47.128;15.422;2022-07-09T05:41:41;2.85;;;1.80;;
23868;SDS011;12115;47.128;15.422;2022-07-09T05:44:08;3.88;;;1.30;;
23868;SDS011;12115;47.128;15.422;2022-07-09T05:46:41;5.13;;;1.20;;
23868;SDS011;12115;47.128;15.422;2022-07-09T05:49:08;2.53;;;1.13;;
23868;SDS011;12115;47.128;15.422;2022-07-09T05:51:35;3.50;;;1.00;;
23868;SDS011;12115;47.128;15.422;2022-07-09T05:54:02;6.20;;;1.40;;
23868;SDS011;12115;47.128;15.422;2022-07-09T05:56:30;2.50;;;1.17;;
23868;SDS011;12115;47.128;15.422;2022-07-09T05:58:57;3.97;;;1.30;;
23868;SDS011;12115;47.128;15.422;2022-07-09T06:01:24;5.50;;;1.65;;
23868;SDS011;12115;47.128;15.422;2022-07-09T06:03:52;3.60;;;1.33;;
23868;SDS011;12115;47.128;15.422;2022-07-09T06:06:19;2.75;;;1.20;;
23868;SDS011;12115;47.128;15.422;2022-07-09T06:08:47;3.42;;;1.30;;
23868;SDS011;12115;47.128;15.422;2022-07-09T06:11:14;3.45;;;1.10;;
23868;SDS011;12115;47.128;15.422;2022-07-09T06:13:41;5.00;;;1.27;;
23868;SDS011;12115;47.128;15.422;2022-07-09T06:16:08;4.13;;;1.08;;
23868;SDS011;12115;47.128;15.422;2022-07-09T06:18:35;3.97;;;1.67;;
23868;SDS011;12115;47.128;15.422;2022-07-09T06:21:03;5.85;;;1.40;;
23868;SDS011;12115;47.128;15.422;2022-07-09T06:23:30;3.58;;;1.20;;
23868;SDS011;12115;47.128;15.422;2022-07-09T06:25:57;4.10;;;0.98;;
23868;SDS011;12115;47.128;15.422;2022-07-09T06:28:24;2.38;;;1.00;;
23868;SDS011;12115;47.128;15.422;2022-07-09T06:30:51;2.60;;;1.00;;
23868;SDS011;12115;47.128;15.422;2022-07-09T06:33:18;3.65;;;0.90;;
23868;SDS011;12115;47.128;15.422;2022-07-09T06:35:45;2.95;;;0.90;;
23868;SDS011;12115;47.128;15.422;2022-07-09T06:38:12;4.05;;;1.02;;
23868;SDS011;12115;47.128;15.422;2022-07-09T06:40:39;3.75;;;0.98;;
23868;SDS011;12115;47.128;15.422;2022-07-09T06:43:06;2.90;;;0.80;;
23868;SDS011;12115;47.128;15.422;2022-07-09T06:45:43;3.63;;;1.02;;
23868;SDS011;12115;47.128;15.422;2022-07-09T06:48:10;2.88;;;0.98;;
23868;SDS011;12115;47.128;15.422;2022-07-09T06:50:37;3.15;;;0.98;;
23868;SDS011;12115;47.128;15.422;2022-07-09T06:53:04;2.08;;;0.90;;
23868;SDS011;12115;47.128;15.422;2022-07-09T06:55:32;2.95;;;0.98;;
23868;SDS011;12115;47.128;15.422;2022-07-09T06:57:58;4.13;;;0.98;;
23868;SDS011;12115;47.128;15.422;2022-07-09T07:00:26;1.70;;;1.00;;
23868;SDS011;12115;47.128;15.422;2022-07-09T07:02:53;1.80;;;0.68;;
23868;SDS011;12115;47.128;15.422;2022-07-09T07:05:25;3.05;;;0.70;;
23868;SDS011;12115;47.128;15.422;2022-07-09T07:07:53;3.05;;;0.80;;
23868;SDS011;12115;47.128;15.422;2022-07-09T07:10:20;2.35;;;0.90;;
23868;SDS011;12115;47.128;15.422;2022-07-09T07:12:49;3.30;;;0.98;;
23868;SDS011;12115;47.128;15.422;2022-07-09T07:15:16;2.00;;;0.70;;
23868;SDS011;12115;47.128;15.422;2022-07-09T07:17:43;1.40;;;0.50;;
23868;SDS011;12115;47.128;15.422;2022-07-09T07:20:11;2.85;;;0.80;;
23868;SDS011;12115;47.128;15.422;2022-07-09T07:22:38;1.00;;;0.63;;
23868;SDS011;12115;47.128;15.422;2022-07-09T07:25:05;4.55;;;0.95;;
23868;SDS011;12115;47.128;15.422;2022-07-09T07:27:32;1.42;;;0.75;;
23868;SDS011;12115;47.128;15.422;2022-07-09T07:29:59;2.47;;;0.80;;
23868;SDS011;12115;47.128;15.422;2022-07-09T07:32:27;3.10;;;0.80;;
23868;SDS011;12115;47.128;15.422;2022-07-09T07:34:54;3.08;;;0.80;;
23868;SDS011;12115;47.128;15.422;2022-07-09T07:37:21;2.08;;;0.90;;
23868;SDS011;12115;47.128;15.422;2022-07-09T07:39:49;4.53;;;1.02;;
23868;SDS011;12115;47.128;15.422;2022-07-09T07:42:16;5.25;;;1.10;;
23868;SDS011;12115;47.128;15.422;2022-07-09T07:44:43;4.25;;;0.80;;
23868;SDS011;12115;47.128;15.422;2022-07-09T07:47:10;1.33;;;0.50;;
23868;SDS011;12115;47.128;15.422;2022-07-09T07:49:37;0.95;;;0.47;;
23868;SDS011;12115;47.128;15.422;2022-07-09T07:52:04;4.50;;;0.70;;
23868;SDS011;12115;47.128;15.422;2022-07-09T07:54:31;2.45;;;0.88;;
23868;SDS011;12115;47.128;15.422;2022-07-09T07:56:59;3.05;;;0.90;;
23868;SDS011;12115;47.128;15.422;2022-07-09T07:59:27;1.88;;;0.65;;
23868;SDS011;12115;47.128;15.422;2022-07-09T08:01:53;1.67;;;0.60;;
23868;SDS011;12115;47.128;15.422;2022-07-09T08:04:21;2.30;;;0.90;;
23868;SDS011;12115;47.128;15.422;2022-07-09T08:06:48;3.85;;;0.60;;
23868;SDS011;12115;47.128;15.422;2022-07-09T08:09:15;3.03;;;0.60;;
23868;SDS011;12115;47.128;15.422;2022-07-09T08:11:42;2.13;;;0.63;;
23868;SDS011;12115;47.128;15.422;2022-07-09T08:14:09;2.08;;;0.60;;
23868;SDS011;12115;47.128;15.422;2022-07-09T08:16:36;1.48;;;0.63;;
23868;SDS011;12115;47.128;15.422;2022-07-09T08:19:03;2.78;;;0.60;;
23868;SDS011;12115;47.128;15.422;2022-07-09T08:21:30;4.97;;;1.05;;
23868;SDS011;12115;47.128;15.422;2022-07-09T08:23:57;1.55;;;0.65;;
23868;SDS011;12115;47.128;15.422;2022-07-09T08:26:26;4.15;;;0.80;;
23868;SDS011;12115;47.128;15.422;2022-07-09T08:28:55;2.45;;;0.68;;
23868;SDS011;12115;47.128;15.422;2022-07-09T08:31:23;2.63;;;0.57;;
23868;SDS011;12115;47.128;15.422;2022-07-09T08:33:50;2.83;;;0.90;;
23868;SDS011;12115;47.128;15.422;2022-07-09T08:36:18;3.03;;;0.85;;
23868;SDS011;12115;47.128;15.422;2022-07-09T08:38:45;2.90;;;0.60;;
23868;SDS011;12115;47.128;15.422;2022-07-09T08:41:13;1.42;;;0.55;;
23868;SDS011;12115;47.128;15.422;2022-07-09T08:43:51;2.95;;;0.70;;
23868;SDS011;12115;47.128;15.422;2022-07-09T08:46:19;2.35;;;0.70;;
23868;SDS011;12115;47.128;15.422;2022-07-09T08:48:46;1.83;;;0.85;;
23868;SDS011;12115;47.128;15.422;2022-07-09T08:51:14;2.10;;;0.57;;
23868;SDS011;12115;47.128;15.422;2022-07-09T08:53:43;3.25;;;0.50;;
23868;SDS011;12115;47.128;15.422;2022-07-09T08:56:11;3.20;;;0.70;;
23868;SDS011;12115;47.128;15.422;2022-07-09T08:58:39;3.03;;;0.60;;
23868;SDS011;12115;47.128;15.422;2022-07-09T09:01:06;1.67;;;0.70;;
23868;SDS011;12115;47.128;15.422;2022-07-09T09:03:35;1.30;;;0.60;;
23868;SDS011;12115;47.128;15.422;2022-07-09T09:06:06;1.52;;;0.60;;
23868;SDS011;12115;47.128;15.422;2022-07-09T09:08:35;1.77;;;0.50;;
23868;SDS011;12115;47.128;15.422;2022-07-09T09:11:04;2.53;;;0.50;;
23868;SDS011;12115;47.128;15.422;2022-07-09T09:13:46;0.55;;;0.30;;
23868;SDS011;12115;47.128;15.422;2022-07-09T09:16:15;1.10;;;0.47;;
23868;SDS011;12115;47.128;15.422;2022-07-09T09:18:48;1.30;;;0.50;;
23868;SDS011;12115;47.128;15.422;2022-07-09T09:21:19;2.05;;;0.68;;
23868;SDS011;12115;47.128;15.422;2022-07-09T09:23:51;3.38;;;0.70;;
23868;SDS011;12115;47.128;15.422;2022-07-09T09:26:24;1.77;;;0.70;;
23868;SDS011;12115;47.128;15.422;2022-07-09T09:31:34;1.27;;;0.40;;
23868;SDS011;12115;47.128;15.422;2022-07-09T09:36:41;1.58;;;0.57;;
23868;SDS011;12115;47.128;15.422;2022-07-09T09:39:19;0.95;;;0.40;;
23868;SDS011;12115;47.128;15.422;2022-07-09T09:41:49;1.98;;;0.70;;
23868;SDS011;12115;47.128;15.422;2022-07-09T09:44:21;1.40;;;0.43;;
23868;SDS011;12115;47.128;15.422;2022-07-09T09:46:53;2.15;;;0.60;;
23868;SDS011;12115;47.128;15.422;2022-07-09T09:49:21;2.05;;;0.52;;
23868;SDS011;12115;47.128;15.422;2022-07-09T09:51:56;2.40;;;0.57;;
23868;SDS011;12115;47.128;15.422;2022-07-09T09:54:23;4.30;;;0.80;;
23868;SDS011;12115;47.128;15.422;2022-07-09T09:56:51;1.95;;;0.60;;
23868;SDS011;12115;47.128;15.422;2022-07-09T09:59:20;1.55;;;0.52;;
23868;SDS011;12115;47.128;15.422;2022-07-09T10:01:48;2.00;;;0.68;;
23868;SDS011;12115;47.128;15.422;2022-07-09T10:04:15;4.03;;;0.70;;
23868;SDS011;12115;47.128;15.422;2022-07-09T10:06:43;1.35;;;0.45;;
23868;SDS011;12115;47.128;15.422;2022-07-09T10:09:11;1.05;;;0.50;;
23868;SDS011;12115;47.128;15.422;2022-07-09T10:11:50;1.38;;;0.50;;
23868;SDS011;12115;47.128;15.422;2022-07-09T10:16:51;3.47;;;0.73;;
23868;SDS011;12115;47.128;15.422;2022-07-09T10:19:25;1.65;;;0.50;;
23868;SDS011;12115;47.128;15.422;2022-07-09T10:21:54;1.15;;;0.55;;
23868;SDS011;12115;47.128;15.422;2022-07-09T10:24:29;2.05;;;0.50;;
23868;SDS011;12115;47.128;15.422;2022-07-09T10:27:07;2.17;;;0.60;;
23868;SDS011;12115;47.128;15.422;2022-07-09T10:29:48;1.90;;;0.60;;
23868;SDS011;12115;47.128;15.422;2022-07-09T10:32:28;1.63;;;0.40;;
23868;SDS011;12115;47.128;15.422;2022-07-09T10:35:00;1.40;;;0.50;;
23868;SDS011;12115;47.128;15.422;2022-07-09T10:37:31;1.30;;;0.50;;
23868;SDS011;12115;47.128;15.422;2022-07-09T10:40:09;1.33;;;0.50;;
23868;SDS011;12115;47.128;15.422;2022-07-09T10:42:41;1.30;;;0.38;;
23868;SDS011;12115;47.128;15.422;2022-07-09T10:45:19;0.85;;;0.35;;
23868;SDS011;12115;47.128;15.422;2022-07-09T10:47:52;1.00;;;0.40;;
23868;SDS011;12115;47.128;15.422;2022-07-09T10:50:20;1.40;;;0.65;;
23868;SDS011;12115;47.128;15.422;2022-07-09T10:52:48;1.27;;;0.50;;
23868;SDS011;12115;47.128;15.422;2022-07-09T10:55:16;1.50;;;0.45;;
23868;SDS011;12115;47.128;15.422;2022-07-09T10:57:48;2.90;;;0.57;;
23868;SDS011;12115;47.128;15.422;2022-07-09T11:00:19;1.17;;;0.55;;
23868;SDS011;12115;47.128;15.422;2022-07-09T11:02:51;2.40;;;0.40;;
23868;SDS011;12115;47.128;15.422;2022-07-09T11:05:18;1.55;;;0.55;;
23868;SDS011;12115;47.128;15.422;2022-07-09T11:08:02;2.35;;;0.50;;
23868;SDS011;12115;47.128;15.422;2022-07-09T11:10:31;2.13;;;0.40;;
23868;SDS011;12115;47.128;15.422;2022-07-09T11:13:01;2.53;;;0.50;;
23868;SDS011;12115;47.128;15.422;2022-07-09T11:15:30;1.40;;;0.60;;
23868;SDS011;12115;47.128;15.422;2022-07-09T11:18:18;1.30;;;0.50;;
23868;SDS011;12115;47.128;15.422;2022-07-09T11:20:46;1.67;;;0.50;;
23868;SDS011;12115;47.128;15.422;2022-07-09T11:23:14;2.47;;;0.50;;
23868;SDS011;12115;47.128;15.422;2022-07-09T11:25:42;0.43;;;0.30;;
23868;SDS011;12115;47.128;15.422;2022-07-09T11:28:22;3.17;;;0.57;;
23868;SDS011;12115;47.128;15.422;2022-07-09T11:31:24;1.52;;;0.40;;
23868;SDS011;12115;47.128;15.422;2022-07-09T11:33:44;3.42;;;0.30;;
23868;SDS011;12115;47.128;15.422;2022-07-09T11:36:36;2.65;;;0.60;;
23868;SDS011;12115;47.128;15.422;2022-07-09T11:39:04;1.25;;;0.70;;
23868;SDS011;12115;47.128;15.422;2022-07-09T11:41:41;5.07;;;0.50;;
23868;SDS011;12115;47.128;15.422;2022-07-09T11:44:09;0.73;;;0.30;;
23868;SDS011;12115;47.128;15.422;2022-07-09T11:46:40;1.02;;;0.57;;
23868;SDS011;12115;47.128;15.422;2022-07-09T11:49:15;1.42;;;0.40;;
23868;SDS011;12115;47.128;15.422;2022-07-09T11:51:43;0.70;;;0.35;;
23868;SDS011;12115;47.128;15.422;2022-07-09T11:54:10;0.95;;;0.30;;
23868;SDS011;12115;47.128;15.422;2022-07-09T11:56:40;2.83;;;0.40;;
23868;SDS011;12115;47.128;15.422;2022-07-09T11:59:11;0.45;;;0.35;;
23868;SDS011;12115;47.128;15.422;2022-07-09T12:01:38;0.75;;;0.32;;
23868;SDS011;12115;47.128;15.422;2022-07-09T12:04:06;2.80;;;0.50;;
23868;SDS011;12115;47.128;15.422;2022-07-09T12:06:50;0.85;;;0.40;;
23868;SDS011;12115;47.128;15.422;2022-07-09T12:09:30;2.22;;;0.40;;
23868;SDS011;12115;47.128;15.422;2022-07-09T12:11:58;0.57;;;0.30;;
23868;SDS011;12115;47.128;15.422;2022-07-09T12:14:26;2.72;;;0.50;;
23868;SDS011;12115;47.128;15.422;2022-07-09T12:16:53;1.35;;;0.40;;
23868;SDS011;12115;47.128;15.422;2022-07-09T12:19:20;1.38;;;0.22;;
23868;SDS011;12115;47.128;15.422;2022-07-09T12:21:47;0.75;;;0.20;;
23868;SDS011;12115;47.128;15.422;2022-07-09T12:24:20;1.75;;;0.40;;
23868;SDS011;12115;47.128;15.422;2022-07-09T12:26:47;2.38;;;0.82;;
23868;SDS011;12115;47.128;15.422;2022-07-09T12:29:34;0.80;;;0.40;;
23868;SDS011;12115;47.128;15.422;2022-07-09T12:32:01;1.40;;;0.43;;
23868;SDS011;12115;47.128;15.422;2022-07-09T12:34:29;2.35;;;0.40;;
23868;SDS011;12115;47.128;15.422;2022-07-09T12:37:02;2.05;;;0.40;;
23868;SDS011;12115;47.128;15.422;2022-07-09T12:39:29;0.88;;;0.45;;
23868;SDS011;12115;47.128;15.422;2022-07-09T12:41:57;3.33;;;0.60;;
23868;SDS011;12115;47.128;15.422;2022-07-09T12:44:24;0.98;;;0.30;;
23868;SDS011;12115;47.128;15.422;2022-07-09T12:46:52;0.50;;;0.30;;
23868;SDS011;12115;47.128;15.422;2022-07-09T12:49:20;1.80;;;0.38;;
23868;SDS011;12115;47.128;15.422;2022-07-09T12:51:47;2.40;;;0.57;;
23868;SDS011;12115;47.128;15.422;2022-07-09T12:54:14;0.95;;;0.30;;
23868;SDS011;12115;47.128;15.422;2022-07-09T12:56:41;2.30;;;0.40;;
23868;SDS011;12115;47.128;15.422;2022-07-09T12:59:28;1.42;;;0.30;;
23868;SDS011;12115;47.128;15.422;2022-07-09T13:01:56;2.15;;;0.40;;
23868;SDS011;12115;47.128;15.422;2022-07-09T13:04:23;1.33;;;0.52;;
23868;SDS011;12115;47.128;15.422;2022-07-09T13:06:50;5.18;;;0.35;;
23868;SDS011;12115;47.128;15.422;2022-07-09T13:09:17;0.93;;;0.50;;
23868;SDS011;12115;47.128;15.422;2022-07-09T13:11:44;1.10;;;0.45;;
23868;SDS011;12115;47.128;15.422;2022-07-09T13:14:12;0.77;;;0.30;;
23868;SDS011;12115;47.128;15.422;2022-07-09T13:16:39;0.70;;;0.32;;
23868;SDS011;12115;47.128;15.422;2022-07-09T13:19:06;1.92;;;0.40;;
23868;SDS011;12115;47.128;15.422;2022-07-09T13:21:33;1.27;;;0.50;;
23868;SDS011;12115;47.128;15.422;2022-07-09T13:24:00;0.30;;;0.30;;
23868;SDS011;12115;47.128;15.422;2022-07-09T13:26:27;0.82;;;0.40;;
23868;SDS011;12115;47.128;15.422;2022-07-09T13:29:01;2.13;;;0.30;;
23868;SDS011;12115;47.128;15.422;2022-07-09T13:31:28;0.88;;;0.30;;
23868;SDS011;12115;47.128;15.422;2022-07-09T13:33:56;4.40;;;0.40;;
23868;SDS011;12115;47.128;15.422;2022-07-09T13:36:22;1.85;;;0.20;;
23868;SDS011;12115;47.128;15.422;2022-07-09T13:38:49;0.60;;;0.30;;
23868;SDS011;12115;47.128;15.422;2022-07-09T13:41:16;1.13;;;0.35;;
23868;SDS011;12115;47.128;15.422;2022-07-09T13:43:45;0.90;;;0.20;;
23868;SDS011;12115;47.128;15.422;2022-07-09T13:46:13;0.75;;;0.32;;
23868;SDS011;12115;47.128;15.422;2022-07-09T13:48:41;1.25;;;0.30;;
23868;SDS011;12115;47.128;15.422;2022-07-09T13:51:08;1.58;;;0.30;;
23868;SDS011;12115;47.128;15.422;2022-07-09T13:53:35;4.00;;;0.50;;
23868;SDS011;12115;47.128;15.422;2022-07-09T13:56:03;1.15;;;0.50;;
23868;SDS011;12115;47.128;15.422;2022-07-09T13:58:31;1.00;;;0.32;;
23868;SDS011;12115;47.128;15.422;2022-07-09T14:00:58;0.70;;;0.30;;
23868;SDS011;12115;47.128;15.422;2022-07-09T14:03:25;0.82;;;0.38;;
23868;SDS011;12115;47.128;15.422;2022-07-09T14:05:53;2.03;;;0.45;;
23868;SDS011;12115;47.128;15.422;2022-07-09T14:08:20;1.02;;;0.38;;
23868;SDS011;12115;47.128;15.422;2022-07-09T14:10:48;0.65;;;0.35;;
23868;SDS011;12115;47.128;15.422;2022-07-09T14:13:17;0.77;;;0.30;;
23868;SDS011;12115;47.128;15.422;2022-07-09T14:15:45;0.82;;;0.40;;
23868;SDS011;12115;47.128;15.422;2022-07-09T14:18:12;2.88;;;0.75;;
23868;SDS011;12115;47.128;15.422;2022-07-09T14:20:39;1.45;;;0.40;;
23868;SDS011;12115;47.128;15.422;2022-07-09T14:23:06;0.52;;;0.30;;
23868;SDS011;12115;47.128;15.422;2022-07-09T14:25:33;0.73;;;0.30;;
23868;SDS011;12115;47.128;15.422;2022-07-09T14:28:00;1.05;;;0.45;;
23868;SDS011;12115;47.128;15.422;2022-07-09T14:30:27;1.23;;;0.20;;
23868;SDS011;12115;47.128;15.422;2022-07-09T14:32:55;2.20;;;0.40;;
23868;SDS011;12115;47.128;15.422;2022-07-09T14:35:22;0.98;;;0.30;;
23868;SDS011;12115;47.128;15.422;2022-07-09T14:37:49;0.50;;;0.20;;
23868;SDS011;12115;47.128;15.422;2022-07-09T14:40:16;0.50;;;0.32;;
23868;SDS011;12115;47.128;15.422;2022-07-09T14:42:43;1.50;;;0.50;;
23868;SDS011;12115;47.128;15.422;2022-07-09T14:45:10;0.63;;;0.30;;
23868;SDS011;12115;47.128;15.422;2022-07-09T14:47:37;0.80;;;0.43;;
23868;SDS011;12115;47.128;15.422;2022-07-09T14:50:04;1.77;;;0.38;;